Time;durP1;ratioP1;P1;durP2;ratioP2;P2;SDS_P1;SDS_P2;PMS_P1;PMS_P2;Temp;Humidity;BMP_temperature;BMP_pressure;BME280_temperature;BME280_humidity;BME280_pressure;Samples;Min_cycle;Max_cycle;Signal;HPM_P1;HPM_P2
2023/03/31 00:01:33;;;;;;;10.90;5.88;;;384.60;2278.40;;;;;;5052269;28;20666;-66
2023/03/31 00:04:07;;;;;;;10.35;6.07;;;384.60;2278.40;;;;;;5052277;28;20037;-66
2023/03/31 00:06:40;;;;;;;6.95;4.93;;;384.60;2278.40;;;;;;5052436;28;20036;-65
2023/03/31 00:09:17;;;;;;;10.40;6.72;;;384.60;2278.40;;;;;;5038519;28;20031;-63
2023/03/31 00:11:43;;;;;;;9.32;5.32;;;384.60;2278.40;;;;;;5052250;28;20387;-66
2023/03/31 00:14:09;;;;;;;8.27;6.28;;;384.60;2278.40;;;;;;5052007;28;20025;-72
2023/03/31 00:16:37;;;;;;;11.35;6.70;;;384.60;2278.40;;;;;;5051991;28;20036;-64
2023/03/31 00:19:04;;;;;;;12.07;6.63;;;384.60;2278.40;;;;;;5051790;28;20497;-66
2023/03/31 00:21:33;;;;;;;10.80;6.80;;;384.50;2329.60;;;;;;5052247;28;20398;-72
2023/03/31 00:24:04;;;;;;;10.93;8.23;;;384.60;2329.60;;;;;;5052206;28;20436;-65
2023/03/31 00:26:31;;;;;;;16.55;10.40;;;384.60;2304.00;;;;;;5051724;28;20070;-65
2023/03/31 00:28:57;;;;;;;22.38;12.40;;;384.60;2304.00;;;;;;5051694;28;20482;-66
2023/03/31 00:31:24;;;;;;;18.50;12.68;;;384.60;2304.00;;;;;;5051451;28;20054;-73
2023/03/31 00:33:50;;;;;;;21.48;9.90;;;384.60;2304.00;;;;;;5051514;28;20375;-65
2023/03/31 00:36:49;;;;;;;14.43;8.65;;;384.60;2304.00;;;;;;5051330;28;20049;-73
2023/03/31 00:39:08;;;;;;;12.15;6.05;;;384.40;2304.00;;;;;;5052742;28;20489;-64
2023/03/31 00:41:37;;;;;;;12.00;7.85;;;384.50;2304.00;;;;;;5050920;28;20029;-73
2023/03/31 00:44:14;;;;;;;9.82;6.78;;;384.40;2304.00;;;;;;5051487;28;20036;-71
2023/03/31 00:46:52;;;;;;;10.27;6.97;;;384.40;2304.00;;;;;;5025933;28;20020;-63
2023/03/31 00:49:21;;;;;;;15.95;8.85;;;384.30;2304.00;;;;;;5050514;28;20032;-63
2023/03/31 00:51:49;;;;;;;17.15;9.35;;;384.30;2278.40;;;;;;5051601;28;20031;-67
2023/03/31 00:54:18;;;;;;;9.90;5.75;;;384.30;2227.20;;;;;;5051110;28;20029;-63
2023/03/31 00:56:47;;;;;;;13.10;5.90;;;384.30;2227.20;;;;;;5051155;28;20475;-75
2023/03/31 00:59:13;;;;;;;15.35;6.70;;;384.20;2278.40;;;;;;5050326;28;20348;-69
2023/03/31 01:01:43;;;;;;;11.20;5.10;;;384.30;2252.80;;;;;;5051364;28;20033;-66
2023/03/31 01:04:10;;;;;;;8.93;6.70;;;384.30;2252.80;;;;;;5050362;28;20365;-62
2023/03/31 01:06:49;;;;;;;12.95;7.00;;;384.30;2227.20;;;;;;5051160;28;20059;-74
2023/03/31 01:09:15;;;;;;;14.20;9.05;;;384.40;2227.20;;;;;;5037533;28;20033;-66
2023/03/31 01:11:45;;;;;;;8.43;5.32;;;384.40;2176.00;;;;;;5051149;28;20031;-65
2023/03/31 01:14:11;;;;;;;33.00;17.38;;;384.40;2176.00;;;;;;5050804;28;20052;-65
2023/03/31 01:16:38;;;;;;;14.88;9.65;;;384.40;2150.40;;;;;;5051279;28;20040;-69
2023/03/31 01:19:09;;;;;;;17.92;8.90;;;384.40;2124.80;;;;;;5051013;28;20021;-73
2023/03/31 01:22:12;;;;;;;8.10;4.32;;;384.40;2124.80;;;;;;5050412;28;20125;-73
2023/03/31 01:25:00;;;;;;;8.00;4.43;;;384.50;2099.20;;;;;;5051014;28;20025;-63
2023/03/31 01:27:38;;;;;;;8.93;4.70;;;384.50;2073.60;;;;;;5028199;28;20268;-74
2023/03/31 01:30:25;;;;;;;8.82;4.57;;;384.50;2048.00;;;;;;5050287;28;20021;-63
2023/03/31 01:32:53;;;;;;;12.05;4.70;;;384.60;2022.40;;;;;;5050895;28;20032;-62
2023/03/31 01:35:30;;;;;;;10.27;5.35;;;384.50;2022.40;;;;;;5025131;28;20051;-63
2023/03/31 01:38:20;;;;;;;12.00;6.40;;;384.50;2022.40;;;;;;5050239;28;20036;-63
2023/03/31 01:41:20;;;;;;;10.02;4.78;;;384.60;2022.40;;;;;;5050331;28;20095;-63
2023/03/31 01:44:02;;;;;;;10.30;5.55;;;384.60;1996.80;;;;;;5029445;28;20021;-63
2023/03/31 01:47:06;;;;;;;7.30;3.85;;;384.60;1996.80;;;;;;5050527;28;20029;-63
2023/03/31 01:49:34;;;;;;;;;;;384.50;2022.40;;;;;;5050268;28;20101;-73
2023/03/31 01:52:18;;;;;;;7.18;4.40;;;384.50;1971.20;;;;;;5050824;28;19905;-63
2023/03/31 01:55:07;;;;;;;16.85;7.18;;;384.50;1996.80;;;;;;5050132;28;20027;-63
2023/03/31 01:57:43;;;;;;;23.88;9.43;;;384.50;1971.20;;;;;;5050056;28;20099;-72
2023/03/31 02:00:13;;;;;;;18.52;9.38;;;384.50;1996.80;;;;;;5049466;28;20102;-70
2023/03/31 02:03:04;;;;;;;11.07;6.20;;;384.60;1971.20;;;;;;5049814;28;20064;-65
2023/03/31 02:05:35;;;;;;;9.65;5.88;;;384.60;1971.20;;;;;;5049537;28;20029;-65
2023/03/31 02:08:21;;;;;;;16.65;8.23;;;384.60;1996.80;;;;;;5050183;28;20488;-62
2023/03/31 02:10:49;;;;;;;14.23;7.57;;;384.60;1971.20;;;;;;5049985;28;20021;-62
2023/03/31 02:13:16;;;;;;;10.45;4.80;;;384.60;1971.20;;;;;;5049637;28;20025;-74
2023/03/31 02:15:46;;;;;;;10.57;4.20;;;384.40;2022.40;;;;;;5049462;28;20090;-65
2023/03/31 02:18:16;;;;;;;10.88;4.03;;;384.40;1945.60;;;;;;5049999;28;20480;-73
2023/03/31 02:20:46;;;;;;;8.80;3.85;;;384.50;1945.60;;;;;;5050028;28;20025;-65
2023/03/31 02:23:15;;;;;;;9.38;3.65;;;384.60;1945.60;;;;;;5049738;28;20356;-65
2023/03/31 02:25:48;;;;;;;6.32;3.20;;;384.60;1945.60;;;;;;5049638;28;20892;-65
2023/03/31 02:28:22;;;;;;;4.20;2.92;;;384.60;1971.20;;;;;;5049624;28;20036;-74
2023/03/31 02:30:53;;;;;;;6.57;2.88;;;384.60;1945.60;;;;;;5049425;28;20025;-64
2023/03/31 02:33:19;;;;;;;7.15;2.97;;;384.60;1920.00;;;;;;5049774;28;20092;-62
2023/03/31 02:35:45;;;;;;;6.60;3.38;;;384.60;1920.00;;;;;;5049292;28;20086;-78
2023/03/31 02:38:12;;;;;;;5.65;3.22;;;384.60;1920.00;;;;;;5049149;28;20045;-63
2023/03/31 02:40:37;;;;;;;5.93;4.03;;;384.60;1920.00;;;;;;5049596;28;20044;-66
2023/03/31 02:43:03;;;;;;;8.20;3.90;;;384.50;1920.00;;;;;;5049248;28;20463;-65
2023/03/31 02:45:38;;;;;;;10.45;4.13;;;384.60;1920.00;;;;;;5049313;28;20025;-64
2023/03/31 02:48:21;;;;;;;4.88;3.05;;;384.60;1945.60;;;;;;5049199;28;20475;-64
2023/03/31 02:50:52;;;;;;;6.73;3.43;;;384.50;1920.00;;;;;;5049097;28;20024;-70
2023/03/31 02:53:36;;;;;;;7.20;2.88;;;384.50;1920.00;;;;;;5048068;28;20270;-65
2023/03/31 02:56:29;;;;;;;7.30;2.58;;;384.60;1894.40;;;;;;5048729;28;20494;-66
2023/03/31 02:59:04;;;;;;;10.13;3.47;;;384.60;1894.40;;;;;;5048801;28;20021;-70
2023/03/31 03:01:44;;;;;;;5.88;3.08;;;384.60;1920.00;;;;;;5049240;28;20029;-65
2023/03/31 03:04:10;;;;;;;9.00;3.30;;;384.60;1920.00;;;;;;5049057;28;20116;-71
2023/03/31 03:07:16;;;;;;;7.03;3.33;;;384.60;1894.40;;;;;;5049087;28;20128;-65
2023/03/31 03:09:41;;;;;;;5.25;2.85;;;384.60;1920.00;;;;;;5048790;28;20039;-70
2023/03/31 03:12:14;;;;;;;5.30;3.60;;;384.60;1894.40;;;;;;5048159;28;20017;-64
2023/03/31 03:15:13;;;;;;;5.63;3.17;;;384.60;1894.40;;;;;;5049282;28;20025;-63
2023/03/31 03:17:39;;;;;;;6.32;2.65;;;384.60;1945.60;;;;;;5025639;28;20037;-65
2023/03/31 03:20:08;;;;;;;7.82;5.25;;;384.40;1920.00;;;;;;5048829;28;20032;-66
2023/03/31 03:22:38;;;;;;;10.13;7.28;;;384.40;1945.60;;;;;;5047548;28;20025;-64
2023/03/31 03:25:05;;;;;;;17.38;9.07;;;384.40;1945.60;;;;;;5048448;28;20052;-64
2023/03/31 03:27:31;;;;;;;14.70;8.20;;;384.30;1971.20;;;;;;5048325;28;20075;-72
2023/03/31 03:29:57;;;;;;;9.52;7.22;;;384.10;1996.80;;;;;;5047847;28;20032;-65
2023/03/31 03:32:23;;;;;;;13.93;5.78;;;384.30;1996.80;;;;;;5048269;28;20438;-65
2023/03/31 03:34:49;;;;;;;10.10;4.50;;;384.20;1971.20;;;;;;5040019;28;20049;-66
2023/03/31 03:37:15;;;;;;;8.02;3.63;;;384.10;1971.20;;;;;;5043420;28;20033;-71
2023/03/31 03:39:40;;;;;;;25.05;20.83;;;384.30;1945.60;;;;;;5048905;28;20406;-65
2023/03/31 03:42:06;;;;;;;10.82;5.68;;;384.30;1971.20;;;;;;5048733;28;20029;-67
2023/03/31 03:44:32;;;;;;;9.85;5.85;;;384.30;1971.20;;;;;;5048678;28;20056;-63
2023/03/31 03:46:57;;;;;;;10.50;7.53;;;384.30;1971.20;;;;;;5049015;28;20029;-66
2023/03/31 03:49:23;;;;;;;8.50;5.07;;;384.40;1971.20;;;;;;5048352;28;20064;-64
2023/03/31 03:51:49;;;;;;;8.95;4.88;;;384.30;1971.20;;;;;;5048937;28;20074;-64
2023/03/31 03:54:15;;;;;;;9.60;5.10;;;384.40;1971.20;;;;;;5048482;28;20024;-71
2023/03/31 03:56:40;;;;;;;6.70;4.82;;;384.40;1971.20;;;;;;5048887;28;20040;-64
2023/03/31 03:59:06;;;;;;;9.77;4.78;;;384.30;1996.80;;;;;;5048190;28;20078;-72
2023/03/31 04:01:32;;;;;;;5.88;3.95;;;384.20;1996.80;;;;;;5048611;28;20025;-72
2023/03/31 04:03:57;;;;;;;8.07;4.25;;;384.10;1996.80;;;;;;5048255;28;20021;-65
2023/03/31 04:06:23;;;;;;;7.85;4.72;;;384.10;1996.80;;;;;;5048356;28;20065;-65
2023/03/31 04:08:49;;;;;;;10.95;4.57;;;384.10;1996.80;;;;;;5048859;28;20534;-66
2023/03/31 04:11:17;;;;;;;10.88;4.78;;;384.10;1996.80;;;;;;5048439;28;20375;-74
2023/03/31 04:13:43;;;;;;;9.27;4.45;;;384.10;1996.80;;;;;;5048117;28;20101;-64
2023/03/31 04:16:10;;;;;;;14.48;4.65;;;384.10;1996.80;;;;;;5048489;28;20082;-64
2023/03/31 04:18:41;;;;;;;11.13;4.00;;;384.00;1996.80;;;;;;5048324;28;20036;-64
2023/03/31 04:21:11;;;;;;;8.73;5.07;;;384.10;2022.40;;;;;;5048312;28;20021;-73
2023/03/31 04:23:45;;;;;;;10.07;6.75;;;384.00;2022.40;;;;;;5051197;28;20104;-64
2023/03/31 04:26:11;;;;;;;12.77;5.95;;;384.00;2022.40;;;;;;5052069;28;20029;-73
2023/03/31 04:28:41;;;;;;;9.85;6.18;;;384.00;2022.40;;;;;;5051666;28;20028;-65
2023/03/31 04:31:09;;;;;;;11.23;6.25;;;384.10;2022.40;;;;;;5051637;28;20035;-66
2023/03/31 04:33:38;;;;;;;14.63;8.63;;;384.10;2022.40;;;;;;5051060;28;20018;-74
2023/03/31 04:36:16;;;;;;;16.65;9.70;;;384.10;1996.80;;;;;;5051462;28;20049;-72
2023/03/31 04:38:45;;;;;;;13.57;7.47;;;384.10;2099.20;;;;;;5051764;28;20379;-75
2023/03/31 04:41:12;;;;;;;13.52;8.02;;;384.10;2022.40;;;;;;5051193;28;20040;-66
2023/03/31 04:43:38;;;;;;;25.10;13.32;;;384.10;2022.40;;;;;;5051621;28;20082;-65
2023/03/31 04:46:04;;;;;;;23.10;11.40;;;384.00;2048.00;;;;;;5042661;28;20419;-63
2023/03/31 04:48:30;;;;;;;11.23;7.10;;;384.00;2022.40;;;;;;5039678;28;20029;-77
2023/03/31 04:50:55;;;;;;;13.57;6.85;;;384.00;2022.40;;;;;;5031402;28;20018;-64
2023/03/31 04:53:21;;;;;;;13.93;8.45;;;384.00;2022.40;;;;;;5040056;28;20048;-64
2023/03/31 04:55:48;;;;;;;11.48;6.78;;;384.10;1996.80;;;;;;5051065;28;20060;-62
2023/03/31 04:58:14;;;;;;;15.15;8.07;;;384.30;2048.00;;;;;;5042451;28;20025;-62
2023/03/31 05:00:40;;;;;;;12.80;7.85;;;384.40;2022.40;;;;;;5031407;28;20121;-62
2023/03/31 05:03:07;;;;;;;14.38;9.60;;;384.40;2022.40;;;;;;5031238;28;20022;-72
2023/03/31 05:05:33;;;;;;;17.70;10.82;;;384.40;2022.40;;;;;;5033576;28;20065;-64
2023/03/31 05:07:58;;;;;;;21.50;13.10;;;384.50;2022.40;;;;;;5051270;28;20020;-64
2023/03/31 05:10:25;;;;;;;18.63;10.02;;;384.60;2022.40;;;;;;5050837;28;20025;-64
2023/03/31 05:12:50;;;;;;;15.48;9.27;;;384.70;2022.40;;;;;;5051398;28;20486;-63
2023/03/31 05:15:16;;;;;;;19.08;10.82;;;384.90;1996.80;;;;;;5050851;28;20029;-63
2023/03/31 05:17:42;;;;;;;27.98;15.05;;;409.60;1996.80;;;;;;5051201;28;20119;-74
2023/03/31 05:20:08;;;;;;;24.45;13.98;;;409.80;1996.80;;;;;;5050882;28;20024;-64
2023/03/31 05:22:38;;;;;;;21.98;11.88;;;409.70;1996.80;;;;;;5050736;28;20155;-64
2023/03/31 05:25:06;;;;;;;21.05;10.75;;;409.90;1996.80;;;;;;5046945;28;20104;-69
2023/03/31 05:27:32;;;;;;;11.35;6.85;;;409.80;1996.80;;;;;;5041840;28;20021;-74
2023/03/31 05:29:59;;;;;;;7.38;3.40;;;409.80;2022.40;;;;;;5050200;28;20033;-64
2023/03/31 05:32:26;;;;;;;7.32;4.47;;;409.90;1996.80;;;;;;5050543;28;20032;-64
2023/03/31 05:34:55;;;;;;;6.88;3.55;;;410.00;1996.80;;;;;;5049703;28;20094;-68
2023/03/31 05:37:23;;;;;;;8.63;4.68;;;409.90;1971.20;;;;;;5050640;28;20025;-64
2023/03/31 05:39:49;;;;;;;10.65;4.65;;;410.50;1920.00;;;;;;5050615;28;20017;-73
2023/03/31 05:42:15;;;;;;;44.88;32.13;;;436.00;1868.80;;;;;;5050708;28;20020;-64
2023/03/31 05:44:40;;;;;;;42.33;29.35;;;461.40;1868.80;;;;;;5050218;28;20774;-71
2023/03/31 05:47:06;;;;;;;29.45;22.73;;;486.50;1817.60;;;;;;5049970;28;20052;-64
2023/03/31 05:49:32;;;;;;;36.28;28.70;;;487.30;1715.20;;;;;;5050088;28;20017;-64
2023/03/31 05:51:57;;;;;;;20.08;14.93;;;512.40;1689.60;;;;;;5050315;28;20029;-65
2023/03/31 05:54:23;;;;;;;29.85;22.20;;;538.20;1612.80;;;;;;5049928;28;20021;-67
2023/03/31 05:56:49;;;;;;;40.25;30.77;;;538.30;1664.00;;;;;;5050598;28;20040;-65
2023/03/31 05:59:15;;;;;;;42.00;29.88;;;537.90;1689.60;;;;;;5046777;28;20025;-64
2023/03/31 06:01:40;;;;;;;43.20;33.70;;;512.80;1689.60;;;;;;5039157;28;20029;-66
2023/03/31 06:04:06;;;;;;;23.20;18.33;;;512.80;1715.20;;;;;;5033897;28;20411;-64
2023/03/31 06:06:33;;;;;;;32.78;18.45;;;538.50;1638.40;;;;;;5039956;28;20100;-65
2023/03/31 06:08:59;;;;;;;56.97;40.58;;;564.10;1561.60;;;;;;5041302;28;20018;-65
2023/03/31 06:11:25;;;;;;;45.88;33.08;;;589.20;1587.20;;;;;;5036047;28;20383;-65
2023/03/31 06:13:51;;;;;;;159.70;114.20;;;614.80;1484.80;;;;;;5029967;28;20483;-65
2023/03/31 06:16:17;;;;;;;171.65;127.10;;;665.80;1408.00;;;;;;5029661;28;20033;-70
2023/03/31 06:18:44;;;;;;;74.15;57.33;;;716.80;1331.20;;;;;;5029530;28;20539;-66
2023/03/31 06:21:12;;;;;;;30.98;27.02;;;743.00;1203.20;;;;;;5032479;28;20032;-72
2023/03/31 06:23:38;;;;;;;41.67;27.67;;;793.60;1152.00;;;;;;5038580;28;20044;-66
2023/03/31 06:26:07;;;;;;;29.75;21.67;;;768.60;1126.40;;;;;;5034124;28;20025;-66
2023/03/31 06:28:34;;;;;;;16.52;12.68;;;717.10;1228.80;;;;;;5037942;28;20036;-62
2023/03/31 06:31:02;;;;;;;23.40;15.73;;;665.60;1280.00;;;;;;5035966;28;20075;-65
2023/03/31 06:33:27;;;;;;;25.08;15.10;;;640.50;1305.60;;;;;;5031717;28;20026;-66
2023/03/31 06:35:58;;;;;;;17.17;10.18;;;640.10;1305.60;;;;;;5049122;28;20102;-66
2023/03/31 06:38:25;;;;;;;16.63;11.32;;;640.90;1254.40;;;;;;5029147;28;20064;-66
2023/03/31 06:40:50;;;;;;;13.90;11.00;;;666.40;1254.40;;;;;;5048064;28;20025;-66
2023/03/31 06:43:16;;;;;;;14.80;7.03;;;666.00;1280.00;;;;;;5049787;28;20083;-66
2023/03/31 06:45:42;;;;;;;9.27;6.35;;;640.40;1280.00;;;;;;5048926;28;20465;-66
2023/03/31 06:48:07;;;;;;;8.35;5.13;;;615.10;1331.20;;;;;;5049364;28;20025;-65
2023/03/31 06:50:35;;;;;;;7.75;4.28;;;589.50;1356.80;;;;;;5048910;28;20075;-66
2023/03/31 06:53:01;;;;;;;8.02;4.05;;;588.80;1408.00;;;;;;5049283;28;20051;-66
2023/03/31 06:55:27;;;;;;;5.22;3.40;;;614.80;1356.80;;;;;;5048955;28;20039;-66
2023/03/31 06:57:52;;;;;;;10.13;3.30;;;589.50;1382.40;;;;;;5048578;28;20029;-66
2023/03/31 07:00:18;;;;;;;8.57;3.40;;;563.90;1433.60;;;;;;5048932;28;20360;-66
2023/03/31 07:02:47;;;;;;;8.65;4.65;;;563.90;1433.60;;;;;;5044595;28;20029;-67
2023/03/31 07:05:13;;;;;;;5.88;3.40;;;563.90;1408.00;;;;;;5035340;28;20040;-65
2023/03/31 07:07:39;;;;;;;5.97;2.90;;;563.60;1433.60;;;;;;5048664;28;20028;-66
2023/03/31 07:10:05;;;;;;;8.90;3.55;;;563.30;1459.20;;;;;;5031508;28;20392;-65
2023/03/31 07:12:33;;;;;;;7.60;3.42;;;563.30;1484.80;;;;;;5029606;28;20021;-66
2023/03/31 07:14:59;;;;;;;5.63;3.47;;;563.60;1459.20;;;;;;5028916;28;20553;-64
2023/03/31 07:17:25;;;;;;;11.23;3.40;;;563.70;1459.20;;;;;;5029151;28;20128;-65
2023/03/31 07:19:51;;;;;;;4.90;3.90;;;563.60;1459.20;;;;;;5029618;28;20421;-65
2023/03/31 07:22:17;;;;;;;9.05;3.75;;;563.90;1433.60;;;;;;5040753;28;20025;-65
2023/03/31 07:24:42;;;;;;;7.40;3.80;;;589.50;1408.00;;;;;;5048531;28;20025;-67
2023/03/31 07:27:08;;;;;;;17.25;12.32;;;614.50;1382.40;;;;;;5039892;28;20048;-64
2023/03/31 07:29:34;;;;;;;7.30;4.55;;;666.50;1254.40;;;;;;5044111;28;20459;-66
2023/03/31 07:32:00;;;;;;;10.45;9.45;;;666.00;1254.40;;;;;;5042903;28;20040;-65
2023/03/31 07:34:26;;;;;;;9.07;5.95;;;666.00;1280.00;;;;;;5044774;28;20075;-66
2023/03/31 07:36:54;;;;;;;10.38;4.90;;;691.20;1254.40;;;;;;5047999;28;20037;-65
2023/03/31 07:39:20;;;;;;;8.63;5.10;;;717.40;1203.20;;;;;;5048075;28;20075;-66
2023/03/31 07:41:47;;;;;;;8.00;5.55;;;768.70;1126.40;;;;;;5047842;28;20025;-66
2023/03/31 07:44:12;;;;;;;7.32;5.38;;;794.50;1075.20;;;;;;5046508;28;20033;-68
2023/03/31 07:46:38;;;;;;;12.45;4.93;;;819.60;1049.60;;;;;;5047925;28;20025;-66
2023/03/31 07:49:06;;;;;;;7.28;3.80;;;793.70;1100.80;;;;;;5046787;28;20052;-66
2023/03/31 07:51:32;;;;;;;6.22;5.00;;;743.30;1100.80;;;;;;5048857;28;20032;-67
2023/03/31 07:53:58;;;;;;;5.45;3.63;;;743.10;1126.40;;;;;;5048791;28;20115;-67
2023/03/31 07:56:24;;;;;;;6.10;4.57;;;742.40;1152.00;;;;;;5047799;28;20048;-65
2023/03/31 07:58:51;;;;;;;9.85;5.32;;;742.90;1152.00;;;;;;5035090;28;20020;-67
2023/03/31 08:01:19;;;;;;;9.05;5.05;;;768.10;1126.40;;;;;;5052107;28;20108;-66
2023/03/31 08:03:46;;;;;;;6.97;5.22;;;819.50;1075.20;;;;;;5051789;28;20025;-67
2023/03/31 08:06:18;;;;;;;7.65;5.50;;;870.50;998.40;;;;;;5052809;28;20044;-67
2023/03/31 08:08:44;;;;;;;7.63;5.80;;;845.40;1049.60;;;;;;5051896;28;20017;-67
2023/03/31 08:11:10;;;;;;;8.30;6.00;;;845.20;1049.60;;;;;;5052212;28;20021;-67
2023/03/31 08:13:35;;;;;;;6.35;4.95;;;845.70;998.40;;;;;;5052162;28;20024;-67
2023/03/31 08:16:02;;;;;;;6.07;3.88;;;844.90;1024.00;;;;;;5052180;28;20367;-67
2023/03/31 08:18:28;;;;;;;5.00;3.92;;;845.10;1049.60;;;;;;5051993;28;20071;-66
2023/03/31 08:20:53;;;;;;;7.60;5.07;;;819.30;1075.20;;;;;;5051871;28;20017;-67
2023/03/31 08:23:19;;;;;;;6.68;4.97;;;845.10;1049.60;;;;;;5052234;28;20060;-66
2023/03/31 08:25:46;;;;;;;6.80;5.13;;;794.10;1100.80;;;;;;5051649;28;20050;-67
2023/03/31 08:28:12;;;;;;;5.53;5.03;;;819.80;1049.60;;;;;;5051298;28;20041;-67
2023/03/31 08:30:39;;;;;;;6.35;4.70;;;819.80;1049.60;;;;;;5051958;28;20061;-67
2023/03/31 08:33:06;;;;;;;7.07;4.40;;;794.20;1075.20;;;;;;5051455;28;20029;-67
2023/03/31 08:35:33;;;;;;;6.55;4.43;;;768.70;1075.20;;;;;;5051763;28;20089;-67
2023/03/31 08:37:59;;;;;;;7.05;4.70;;;743.30;1100.80;;;;;;5051619;28;20058;-67
2023/03/31 08:40:27;;;;;;;10.45;4.40;;;793.80;1100.80;;;;;;5051495;28;20021;-66
2023/03/31 08:42:56;;;;;;;5.15;4.22;;;794.00;1075.20;;;;;;5051761;28;20021;-69
2023/03/31 08:45:37;;;;;;;10.18;4.40;;;743.10;1126.40;;;;;;5051593;28;20439;-67
2023/03/31 08:48:36;;;;;;;6.55;5.78;;;768.50;1100.80;;;;;;5028895;28;20082;-67
2023/03/31 08:51:11;;;;;;;7.53;4.65;;;793.70;1100.80;;;;;;5050420;28;20108;-66
2023/03/31 08:53:45;;;;;;;5.35;3.50;;;768.40;1075.20;;;;;;5051504;28;20033;-67
2023/03/31 08:56:22;;;;;;;7.97;6.30;;;743.10;1100.80;;;;;;5051182;28;20067;-66
2023/03/31 08:58:51;;;;;;;12.27;9.32;;;768.00;1100.80;;;;;;5051206;28;20455;-66
2023/03/31 09:01:25;;;;;;;9.43;6.20;;;742.60;1152.00;;;;;;5051141;28;20029;-67
2023/03/31 09:04:24;;;;;;;10.23;7.95;;;716.90;1177.60;;;;;;5050825;28;20068;-65
2023/03/31 09:07:25;;;;;;;9.48;5.22;;;665.80;1228.80;;;;;;5051062;28;20032;-65
2023/03/31 09:09:58;;;;;;;10.73;4.63;;;666.00;1254.40;;;;;;5027932;28;20052;-66
2023/03/31 09:12:45;;;;;;;9.55;3.55;;;640.60;1254.40;;;;;;5029709;28;20025;-64
2023/03/31 09:15:27;;;;;;;7.10;3.60;;;640.10;1254.40;;;;;;5028613;28;20045;-65
2023/03/31 09:17:54;;;;;;;11.05;4.13;;;614.80;1305.60;;;;;;5028943;28;20550;-66
2023/03/31 09:20:38;;;;;;;13.48;6.80;;;615.30;1305.60;;;;;;5028657;28;20033;-65
2023/03/31 09:23:26;;;;;;;6.03;4.22;;;640.00;1280.00;;;;;;5028435;28;20026;-66
2023/03/31 09:25:54;;;;;;;5.65;3.45;;;615.00;1305.60;;;;;;5028744;28;20017;-65
2023/03/31 09:28:39;;;;;;;10.93;6.53;;;614.80;1305.60;;;;;;5028685;28;20026;-65
2023/03/31 09:31:13;;;;;;;5.38;3.30;;;614.80;1331.20;;;;;;5027775;28;20033;-63
2023/03/31 09:33:45;;;;;;;6.80;3.30;;;614.40;1331.20;;;;;;5042120;28;20519;-65
2023/03/31 09:36:16;;;;;;;6.88;3.05;;;614.70;1331.20;;;;;;5047148;28;20071;-65
2023/03/31 09:38:43;;;;;;;8.65;4.25;;;614.80;1305.60;;;;;;5047174;28;20107;-66
2023/03/31 09:41:11;;;;;;;7.53;4.40;;;615.30;1280.00;;;;;;5047415;28;20120;-66
2023/03/31 09:43:40;;;;;;;7.13;3.47;;;615.30;1280.00;;;;;;5046955;28;20517;-66
2023/03/31 09:46:29;;;;;;;7.18;3.08;;;615.00;1305.60;;;;;;5048090;28;20112;-65
2023/03/31 09:49:11;;;;;;;5.13;2.90;;;614.90;1305.60;;;;;;5049760;28;20028;-67
2023/03/31 09:51:41;;;;;;;6.45;3.10;;;614.80;1305.60;;;;;;5049246;28;20025;-65
2023/03/31 09:54:20;;;;;;;5.32;3.03;;;614.70;1305.60;;;;;;5048242;28;20033;-65
2023/03/31 09:56:51;;;;;;;5.00;3.45;;;614.80;1305.60;;;;;;5049264;28;20044;-65
2023/03/31 09:59:22;;;;;;;6.35;3.72;;;589.40;1331.20;;;;;;5044080;28;20050;-64
2023/03/31 10:01:55;;;;;;;12.13;5.38;;;589.40;1356.80;;;;;;5036903;28;20028;-64
2023/03/31 10:04:31;;;;;;;5.25;3.17;;;614.50;1356.80;;;;;;5030457;28;20116;-65
2023/03/31 10:06:59;;;;;;;6.88;4.15;;;614.60;1331.20;;;;;;5038451;28;20104;-65
2023/03/31 10:09:29;;;;;;;4.40;3.30;;;614.80;1305.60;;;;;;5050009;28;20045;-64
2023/03/31 10:12:04;;;;;;;4.28;2.78;;;614.80;1305.60;;;;;;5049905;28;20017;-65
2023/03/31 10:14:40;;;;;;;6.50;3.38;;;614.70;1280.00;;;;;;5049789;28;20025;-65
2023/03/31 10:17:06;;;;;;;6.75;3.22;;;614.70;1305.60;;;;;;5049484;28;20036;-65
2023/03/31 10:19:36;;;;;;;5.70;3.22;;;589.60;1331.20;;;;;;5049673;28;20017;-66
2023/03/31 10:22:22;;;;;;;10.68;5.13;;;589.30;1331.20;;;;;;5049791;28;20450;-66
2023/03/31 10:24:50;;;;;;;8.02;3.75;;;589.50;1382.40;;;;;;5049282;28;20048;-65
2023/03/31 10:27:31;;;;;;;7.88;3.85;;;589.70;1356.80;;;;;;5049347;28;20021;-66
2023/03/31 10:29:59;;;;;;;6.03;3.92;;;614.90;1331.20;;;;;;5049371;28;20391;-65
2023/03/31 10:32:34;;;;;;;7.43;3.95;;;614.80;1305.60;;;;;;5048919;28;20017;-66
2023/03/31 10:35:25;;;;;;;8.63;5.03;;;614.40;1331.20;;;;;;5048962;28;20049;-66
2023/03/31 10:37:55;;;;;;;9.98;7.68;;;615.20;1254.40;;;;;;5024288;28;20069;-65
2023/03/31 10:40:25;;;;;;;19.58;7.68;;;615.30;1305.60;;;;;;5049248;28;20029;-66
2023/03/31 10:42:59;;;;;;;12.10;5.68;;;615.20;1331.20;;;;;;5049618;28;20018;-66
2023/03/31 10:45:30;;;;;;;5.78;4.43;;;614.90;1356.80;;;;;;5048827;28;20044;-66
2023/03/31 10:47:58;;;;;;;6.78;3.50;;;614.80;1331.20;;;;;;5049437;28;20025;-66
2023/03/31 10:50:30;;;;;;;5.97;3.72;;;614.60;1305.60;;;;;;5049120;28;20017;-67
2023/03/31 10:53:12;;;;;;;11.07;6.05;;;589.70;1356.80;;;;;;5049145;28;20025;-66
2023/03/31 10:56:16;;;;;;;9.30;4.47;;;614.60;1280.00;;;;;;5049405;28;20029;-66
2023/03/31 10:58:57;;;;;;;;;;;614.90;1331.20;;;;;;5047551;28;20084;-66
2023/03/31 11:01:37;;;;;;;9.60;4.05;;;614.90;1280.00;;;;;;5046683;28;19908;-67
2023/03/31 11:04:21;;;;;;;11.15;5.97;;;615.00;1331.20;;;;;;5046529;28;20043;-66
2023/03/31 11:07:04;;;;;;;12.48;6.88;;;615.10;1356.80;;;;;;5047043;28;20025;-66
2023/03/31 11:09:36;;;;;;;10.23;5.00;;;640.10;1280.00;;;;;;5046861;28;20573;-67
2023/03/31 11:12:23;;;;;;;4.47;2.95;;;614.80;1305.60;;;;;;5046738;28;20112;-66
2023/03/31 11:15:10;;;;;;;4.97;3.53;;;614.90;1305.60;;;;;;5046534;28;20035;-66
2023/03/31 11:18:06;;;;;;;5.55;3.03;;;614.90;1280.00;;;;;;5046746;28;20094;-64
2023/03/31 11:21:05;;;;;;;6.30;3.30;;;614.60;1254.40;;;;;;5046393;28;20031;-66
2023/03/31 11:23:33;;;;;;;6.07;2.63;;;614.80;1356.80;;;;;;5045972;28;20029;-66
2023/03/31 11:26:11;;;;;;;8.13;3.08;;;614.90;1331.20;;;;;;5046921;28;20024;-66
2023/03/31 11:29:02;;;;;;;5.40;3.03;;;614.80;1305.60;;;;;;5046733;28;20039;-67
2023/03/31 11:32:22;;;;;;;5.28;2.92;;;614.80;1305.60;;;;;;5048491;28;20044;-66
2023/03/31 11:35:09;;;;;;;12.75;5.53;;;614.50;1356.80;;;;;;5045601;28;20072;-67
2023/03/31 11:38:18;;;;;;;5.38;2.92;;;614.50;1280.00;;;;;;5014170;28;20492;-66
2023/03/31 11:40:53;;;;;;;6.32;3.47;;;589.70;1331.20;;;;;;5002676;28;20034;-66
2023/03/31 11:43:24;;;;;;;10.85;6.07;;;589.20;1382.40;;;;;;5010822;28;20029;-66
2023/03/31 11:45:57;;;;;;;41.75;29.48;;;588.80;1382.40;;;;;;5010621;28;20050;-66
2023/03/31 11:49:03;;;;;;;66.45;46.03;;;564.00;1382.40;;;;;;5010650;28;20026;-66
2023/03/31 11:51:47;;;;;;;5.03;3.78;;;563.90;1356.80;;;;;;5010707;28;20030;-66
2023/03/31 11:54:42;;;;;;;8.23;3.95;;;563.80;1356.80;;;;;;5010260;28;20034;-66
2023/03/31 11:57:28;;;;;;;7.65;4.75;;;564.00;1408.00;;;;;;4991078;28;20402;-66
2023/03/31 12:00:06;;;;;;;3.58;2.70;;;564.10;1382.40;;;;;;4999279;28;20024;-66
2023/03/31 12:02:38;;;;;;;18.38;11.48;;;588.80;1433.60;;;;;;5010585;28;20512;-66
2023/03/31 12:05:07;;;;;;;9.52;5.55;;;589.20;1331.20;;;;;;5010339;28;20611;-65
2023/03/31 12:08:09;;;;;;;8.35;3.30;;;563.90;1331.20;;;;;;5010367;28;20022;-62
2023/03/31 12:10:35;;;;;;;9.13;3.08;;;564.00;1356.80;;;;;;4932546;29;20399;-65
2023/03/31 12:13:08;;;;;;;5.82;3.75;;;563.70;1382.40;;;;;;4932780;29;20039;-65
2023/03/31 12:15:39;;;;;;;4.53;2.78;;;563.60;1382.40;;;;;;4932671;29;20028;-64
2023/03/31 12:18:16;;;;;;;5.85;2.58;;;563.40;1382.40;;;;;;4918763;29;20048;-65
2023/03/31 12:20:49;;;;;;;6.18;3.20;;;563.30;1382.40;;;;;;4913602;29;20183;-65
2023/03/31 12:23:19;;;;;;;7.63;3.75;;;563.30;1382.40;;;;;;4913751;29;20028;-66
2023/03/31 12:26:11;;;;;;;4.85;2.85;;;563.30;1382.40;;;;;;4913369;29;20040;-65
2023/03/31 12:28:39;;;;;;;6.53;3.25;;;563.60;1382.40;;;;;;4913653;29;20028;-65
2023/03/31 12:31:07;;;;;;;8.43;5.18;;;564.10;1408.00;;;;;;4912983;29;20027;-66
2023/03/31 12:33:58;;;;;;;15.43;8.73;;;588.90;1356.80;;;;;;4913334;29;20662;-66
2023/03/31 12:36:33;;;;;;;6.47;3.72;;;589.00;1356.80;;;;;;4946610;29;20050;-65
2023/03/31 12:39:11;;;;;;;7.90;5.45;;;589.20;1382.40;;;;;;4951447;28;20034;-66